sensor_id;sensor_type;location;lat;lon;timestamp;P1;durP1;ratioP1;P2;durP2;ratioP2
3549;SDS011;45572;48.804;8.330;2023-04-21T00:00:23;5.28;;;2.65;;
3549;SDS011;45572;48.804;8.330;2023-04-21T00:02:51;3.35;;;2.55;;
3549;SDS011;45572;48.804;8.330;2023-04-21T00:05:19;3.22;;;2.67;;
3549;SDS011;45572;48.804;8.330;2023-04-21T00:07:48;3.80;;;2.10;;
3549;SDS011;45572;48.804;8.330;2023-04-21T00:10:16;4.78;;;2.72;;
3549;SDS011;45572;48.804;8.330;2023-04-21T00:12:44;4.70;;;2.75;;
3549;SDS011;45572;48.804;8.330;2023-04-21T00:15:11;2.97;;;2.20;;
3549;SDS011;45572;48.804;8.330;2023-04-21T00:17:39;5.28;;;3.13;;
3549;SDS011;45572;48.804;8.330;2023-04-21T00:20:07;2.90;;;2.60;;
3549;SDS011;45572;48.804;8.330;2023-04-21T00:22:36;7.00;;;3.03;;
3549;SDS011;45572;48.804;8.330;2023-04-21T00:25:05;4.53;;;3.00;;
3549;SDS011;45572;48.804;8.330;2023-04-21T00:27:33;4.18;;;3.08;;
3549;SDS011;45572;48.804;8.330;2023-04-21T00:30:03;3.88;;;2.40;;
3549;SDS011;45572;48.804;8.330;2023-04-21T00:32:35;2.80;;;2.50;;
3549;SDS011;45572;48.804;8.330;2023-04-21T00:35:03;3.75;;;2.90;;
3549;SDS011;45572;48.804;8.330;2023-04-21T00:37:32;3.45;;;2.90;;
3549;SDS011;45572;48.804;8.330;2023-04-21T00:40:00;4.68;;;2.50;;
3549;SDS011;45572;48.804;8.330;2023-04-21T00:42:31;3.90;;;2.97;;
3549;SDS011;45572;48.804;8.330;2023-04-21T00:44:59;4.88;;;3.08;;
3549;SDS011;45572;48.804;8.330;2023-04-21T00:47:29;8.40;;;3.65;;
3549;SDS011;45572;48.804;8.330;2023-04-21T00:49:57;4.68;;;3.10;;
3549;SDS011;45572;48.804;8.330;2023-04-21T00:52:25;6.22;;;2.90;;
3549;SDS011;45572;48.804;8.330;2023-04-21T00:54:54;3.47;;;3.15;;
3549;SDS011;45572;48.804;8.330;2023-04-21T00:57:22;6.30;;;3.08;;
3549;SDS011;45572;48.804;8.330;2023-04-21T00:59:53;4.05;;;3.30;;
3549;SDS011;45572;48.804;8.330;2023-04-21T01:02:23;4.18;;;2.70;;
3549;SDS011;45572;48.804;8.330;2023-04-21T01:04:50;3.72;;;2.70;;
3549;SDS011;45572;48.804;8.330;2023-04-21T01:07:18;3.97;;;2.78;;
3549;SDS011;45572;48.804;8.330;2023-04-21T01:09:48;4.30;;;2.67;;
3549;SDS011;45572;48.804;8.330;2023-04-21T01:12:15;5.55;;;3.13;;
3549;SDS011;45572;48.804;8.330;2023-04-21T01:14:43;4.85;;;3.40;;
3549;SDS011;45572;48.804;8.330;2023-04-21T01:17:13;5.25;;;3.22;;
3549;SDS011;45572;48.804;8.330;2023-04-21T01:19:46;3.95;;;3.03;;
3549;SDS011;45572;48.804;8.330;2023-04-21T01:22:15;9.32;;;3.70;;
3549;SDS011;45572;48.804;8.330;2023-04-21T01:24:44;4.80;;;3.78;;
3549;SDS011;45572;48.804;8.330;2023-04-21T01:27:14;3.78;;;2.45;;
3549;SDS011;45572;48.804;8.330;2023-04-21T01:29:47;6.78;;;3.75;;
3549;SDS011;45572;48.804;8.330;2023-04-21T01:32:17;4.55;;;3.58;;
3549;SDS011;45572;48.804;8.330;2023-04-21T01:34:47;6.00;;;3.60;;
3549;SDS011;45572;48.804;8.330;2023-04-21T01:37:17;3.75;;;3.33;;
3549;SDS011;45572;48.804;8.330;2023-04-21T01:39:46;5.25;;;3.55;;
3549;SDS011;45572;48.804;8.330;2023-04-21T01:42:17;3.70;;;2.60;;
3549;SDS011;45572;48.804;8.330;2023-04-21T01:44:45;4.45;;;2.78;;
3549;SDS011;45572;48.804;8.330;2023-04-21T01:47:16;6.82;;;3.33;;
3549;SDS011;45572;48.804;8.330;2023-04-21T01:49:44;7.20;;;3.80;;
3549;SDS011;45572;48.804;8.330;2023-04-21T01:52:12;4.45;;;2.45;;
3549;SDS011;45572;48.804;8.330;2023-04-21T01:54:41;4.00;;;3.03;;
3549;SDS011;45572;48.804;8.330;2023-04-21T01:57:09;5.70;;;3.13;;
3549;SDS011;45572;48.804;8.330;2023-04-21T01:59:38;4.85;;;3.50;;
3549;SDS011;45572;48.804;8.330;2023-04-21T02:02:06;4.13;;;3.30;;
3549;SDS011;45572;48.804;8.330;2023-04-21T02:04:35;5.07;;;3.50;;
3549;SDS011;45572;48.804;8.330;2023-04-21T02:07:04;4.30;;;2.97;;
3549;SDS011;45572;48.804;8.330;2023-04-21T02:09:32;6.75;;;3.60;;
3549;SDS011;45572;48.804;8.330;2023-04-21T02:12:01;4.82;;;4.00;;
3549;SDS011;45572;48.804;8.330;2023-04-21T02:14:29;5.00;;;3.67;;
3549;SDS011;45572;48.804;8.330;2023-04-21T02:16:57;7.28;;;4.45;;
3549;SDS011;45572;48.804;8.330;2023-04-21T02:19:26;4.25;;;3.25;;
3549;SDS011;45572;48.804;8.330;2023-04-21T02:21:54;4.50;;;3.72;;
3549;SDS011;45572;48.804;8.330;2023-04-21T02:24:22;4.05;;;3.63;;
3549;SDS011;45572;48.804;8.330;2023-04-21T02:26:51;4.60;;;3.63;;
3549;SDS011;45572;48.804;8.330;2023-04-21T02:29:20;5.20;;;3.75;;
3549;SDS011;45572;48.804;8.330;2023-04-21T02:31:48;6.97;;;4.30;;
3549;SDS011;45572;48.804;8.330;2023-04-21T02:34:30;11.65;;;5.90;;
3549;SDS011;45572;48.804;8.330;2023-04-21T02:36:58;6.88;;;4.55;;
3549;SDS011;45572;48.804;8.330;2023-04-21T02:39:26;7.53;;;3.83;;
3549;SDS011;45572;48.804;8.330;2023-04-21T02:41:54;7.00;;;4.60;;
3549;SDS011;45572;48.804;8.330;2023-04-21T02:44:23;6.82;;;4.50;;
3549;SDS011;45572;48.804;8.330;2023-04-21T02:46:51;12.23;;;6.03;;
3549;SDS011;45572;48.804;8.330;2023-04-21T02:49:19;8.68;;;5.50;;
3549;SDS011;45572;48.804;8.330;2023-04-21T02:51:47;7.10;;;4.95;;
3549;SDS011;45572;48.804;8.330;2023-04-21T02:54:15;10.57;;;5.57;;
3549;SDS011;45572;48.804;8.330;2023-04-21T02:56:42;12.35;;;5.82;;
3549;SDS011;45572;48.804;8.330;2023-04-21T02:59:11;8.45;;;5.32;;
3549;SDS011;45572;48.804;8.330;2023-04-21T03:01:43;5.18;;;3.63;;
3549;SDS011;45572;48.804;8.330;2023-04-21T03:04:11;5.18;;;2.85;;
3549;SDS011;45572;48.804;8.330;2023-04-21T03:06:39;3.13;;;2.80;;
3549;SDS011;45572;48.804;8.330;2023-04-21T03:09:07;3.53;;;2.42;;
3549;SDS011;45572;48.804;8.330;2023-04-21T03:11:35;8.80;;;2.97;;
3549;SDS011;45572;48.804;8.330;2023-04-21T03:14:03;3.30;;;2.80;;
3549;SDS011;45572;48.804;8.330;2023-04-21T03:16:32;4.95;;;3.10;;
3549;SDS011;45572;48.804;8.330;2023-04-21T03:19:01;3.88;;;3.03;;
3549;SDS011;45572;48.804;8.330;2023-04-21T03:21:29;5.05;;;3.30;;
3549;SDS011;45572;48.804;8.330;2023-04-21T03:23:57;3.85;;;2.80;;
3549;SDS011;45572;48.804;8.330;2023-04-21T03:26:25;4.70;;;2.72;;
3549;SDS011;45572;48.804;8.330;2023-04-21T03:28:53;2.78;;;2.35;;
3549;SDS011;45572;48.804;8.330;2023-04-21T03:31:20;3.85;;;2.45;;
3549;SDS011;45572;48.804;8.330;2023-04-21T03:33:48;4.50;;;3.10;;
3549;SDS011;45572;48.804;8.330;2023-04-21T03:36:17;3.10;;;2.53;;
3549;SDS011;45572;48.804;8.330;2023-04-21T03:38:46;4.40;;;2.92;;
3549;SDS011;45572;48.804;8.330;2023-04-21T03:41:13;6.13;;;2.42;;
3549;SDS011;45572;48.804;8.330;2023-04-21T03:43:41;4.80;;;2.85;;
3549;SDS011;45572;48.804;8.330;2023-04-21T03:46:16;3.78;;;2.88;;
3549;SDS011;45572;48.804;8.330;2023-04-21T03:48:44;5.70;;;3.00;;
3549;SDS011;45572;48.804;8.330;2023-04-21T03:51:12;3.38;;;2.65;;
3549;SDS011;45572;48.804;8.330;2023-04-21T03:53:42;3.75;;;2.70;;
3549;SDS011;45572;48.804;8.330;2023-04-21T03:56:10;4.28;;;3.10;;
3549;SDS011;45572;48.804;8.330;2023-04-21T03:58:38;3.38;;;2.80;;
3549;SDS011;45572;48.804;8.330;2023-04-21T04:01:05;4.38;;;3.20;;
3549;SDS011;45572;48.804;8.330;2023-04-21T04:03:33;3.88;;;3.13;;
3549;SDS011;45572;48.804;8.330;2023-04-21T04:06:01;3.90;;;2.47;;
3549;SDS011;45572;48.804;8.330;2023-04-21T04:08:31;4.00;;;2.38;;
3549;SDS011;45572;48.804;8.330;2023-04-21T04:11:00;4.20;;;2.63;;
3549;SDS011;45572;48.804;8.330;2023-04-21T04:13:28;3.25;;;2.70;;
3549;SDS011;45572;48.804;8.330;2023-04-21T04:15:56;4.40;;;3.00;;
3549;SDS011;45572;48.804;8.330;2023-04-21T04:18:25;4.07;;;2.90;;
3549;SDS011;45572;48.804;8.330;2023-04-21T04:20:54;3.75;;;2.83;;
3549;SDS011;45572;48.804;8.330;2023-04-21T04:23:22;4.75;;;3.03;;
3549;SDS011;45572;48.804;8.330;2023-04-21T04:25:51;5.45;;;2.72;;
3549;SDS011;45572;48.804;8.330;2023-04-21T04:28:20;4.07;;;2.90;;
3549;SDS011;45572;48.804;8.330;2023-04-21T04:30:48;5.40;;;3.10;;
3549;SDS011;45572;48.804;8.330;2023-04-21T04:33:16;4.30;;;3.20;;
3549;SDS011;45572;48.804;8.330;2023-04-21T04:35:44;5.07;;;3.47;;
3549;SDS011;45572;48.804;8.330;2023-04-21T04:38:12;6.38;;;2.72;;
3549;SDS011;45572;48.804;8.330;2023-04-21T04:40:40;3.60;;;2.53;;
3549;SDS011;45572;48.804;8.330;2023-04-21T04:43:08;2.92;;;2.63;;
3549;SDS011;45572;48.804;8.330;2023-04-21T04:45:39;8.85;;;3.45;;
3549;SDS011;45572;48.804;8.330;2023-04-21T04:48:09;6.07;;;3.90;;
3549;SDS011;45572;48.804;8.330;2023-04-21T04:50:37;4.97;;;3.22;;
3549;SDS011;45572;48.804;8.330;2023-04-21T04:53:05;4.40;;;3.05;;
3549;SDS011;45572;48.804;8.330;2023-04-21T04:55:33;5.88;;;3.40;;
3549;SDS011;45572;48.804;8.330;2023-04-21T04:58:02;5.53;;;3.42;;
3549;SDS011;45572;48.804;8.330;2023-04-21T05:00:29;6.88;;;4.60;;
3549;SDS011;45572;48.804;8.330;2023-04-21T05:02:59;5.93;;;4.40;;
3549;SDS011;45572;48.804;8.330;2023-04-21T05:05:27;4.38;;;3.45;;
3549;SDS011;45572;48.804;8.330;2023-04-21T05:07:56;4.72;;;3.40;;
3549;SDS011;45572;48.804;8.330;2023-04-21T05:10:24;6.43;;;4.07;;
3549;SDS011;45572;48.804;8.330;2023-04-21T05:12:53;5.07;;;3.45;;
3549;SDS011;45572;48.804;8.330;2023-04-21T05:15:20;3.10;;;2.70;;
3549;SDS011;45572;48.804;8.330;2023-04-21T05:17:48;5.57;;;4.32;;
3549;SDS011;45572;48.804;8.330;2023-04-21T05:20:17;13.10;;;3.47;;
3549;SDS011;45572;48.804;8.330;2023-04-21T05:22:46;5.18;;;3.45;;
3549;SDS011;45572;48.804;8.330;2023-04-21T05:25:13;4.95;;;3.42;;
3549;SDS011;45572;48.804;8.330;2023-04-21T05:27:41;5.82;;;3.10;;
3549;SDS011;45572;48.804;8.330;2023-04-21T05:30:09;7.55;;;4.00;;
3549;SDS011;45572;48.804;8.330;2023-04-21T05:32:37;6.40;;;4.05;;
3549;SDS011;45572;48.804;8.330;2023-04-21T05:35:05;11.10;;;5.03;;
3549;SDS011;45572;48.804;8.330;2023-04-21T05:37:35;5.10;;;3.80;;
3549;SDS011;45572;48.804;8.330;2023-04-21T05:40:03;9.45;;;5.47;;
3549;SDS011;45572;48.804;8.330;2023-04-21T05:42:31;6.32;;;3.85;;
3549;SDS011;45572;48.804;8.330;2023-04-21T05:44:58;7.25;;;4.13;;
3549;SDS011;45572;48.804;8.330;2023-04-21T05:47:26;6.70;;;3.67;;
3549;SDS011;45572;48.804;8.330;2023-04-21T05:49:54;6.22;;;3.90;;
3549;SDS011;45572;48.804;8.330;2023-04-21T05:52:22;3.55;;;2.70;;
3549;SDS011;45572;48.804;8.330;2023-04-21T05:54:51;5.82;;;3.83;;
3549;SDS011;45572;48.804;8.330;2023-04-21T05:57:22;6.13;;;4.35;;
3549;SDS011;45572;48.804;8.330;2023-04-21T05:59:53;5.85;;;3.90;;
3549;SDS011;45572;48.804;8.330;2023-04-21T06:02:20;6.05;;;3.47;;
3549;SDS011;45572;48.804;8.330;2023-04-21T06:04:48;5.88;;;3.45;;
3549;SDS011;45572;48.804;8.330;2023-04-21T06:07:18;154.48;;;33.15;;
3549;SDS011;45572;48.804;8.330;2023-04-21T06:09:48;13.70;;;6.38;;
3549;SDS011;45572;48.804;8.330;2023-04-21T06:12:20;10.35;;;5.57;;
3549;SDS011;45572;48.804;8.330;2023-04-21T06:14:49;9.90;;;5.60;;
3549;SDS011;45572;48.804;8.330;2023-04-21T06:17:18;6.35;;;5.03;;
3549;SDS011;45572;48.804;8.330;2023-04-21T06:19:47;7.32;;;4.50;;
3549;SDS011;45572;48.804;8.330;2023-04-21T06:22:20;6.95;;;3.80;;
3549;SDS011;45572;48.804;8.330;2023-04-21T06:24:50;12.07;;;6.60;;
3549;SDS011;45572;48.804;8.330;2023-04-21T06:27:21;12.63;;;4.13;;
3549;SDS011;45572;48.804;8.330;2023-04-21T06:29:52;8.35;;;3.90;;
3549;SDS011;45572;48.804;8.330;2023-04-21T06:32:21;4.40;;;3.90;;
3549;SDS011;45572;48.804;8.330;2023-04-21T06:34:49;4.50;;;4.10;;
3549;SDS011;45572;48.804;8.330;2023-04-21T06:37:18;11.20;;;5.53;;
3549;SDS011;45572;48.804;8.330;2023-04-21T06:39:47;5.75;;;4.30;;
3549;SDS011;45572;48.804;8.330;2023-04-21T06:42:16;6.72;;;5.72;;
3549;SDS011;45572;48.804;8.330;2023-04-21T06:44:45;6.90;;;5.10;;
3549;SDS011;45572;48.804;8.330;2023-04-21T06:47:15;6.83;;;4.20;;
3549;SDS011;45572;48.804;8.330;2023-04-21T06:49:43;4.70;;;3.40;;
3549;SDS011;45572;48.804;8.330;2023-04-21T06:52:11;7.50;;;3.47;;
3549;SDS011;45572;48.804;8.330;2023-04-21T06:54:39;6.03;;;3.23;;
3549;SDS011;45572;48.804;8.330;2023-04-21T06:57:07;5.13;;;3.50;;
3549;SDS011;45572;48.804;8.330;2023-04-21T06:59:35;6.17;;;3.93;;
3549;SDS011;45572;48.804;8.330;2023-04-21T07:02:04;6.30;;;4.77;;
3549;SDS011;45572;48.804;8.330;2023-04-21T07:04:32;5.47;;;4.00;;
3549;SDS011;45572;48.804;8.330;2023-04-21T07:07:00;5.80;;;4.40;;
3549;SDS011;45572;48.804;8.330;2023-04-21T07:09:28;9.33;;;4.80;;
3549;SDS011;45572;48.804;8.330;2023-04-21T07:11:58;7.97;;;4.10;;
3549;SDS011;45572;48.804;8.330;2023-04-21T07:14:27;6.70;;;4.20;;
3549;SDS011;45572;48.804;8.330;2023-04-21T07:16:55;3.93;;;3.07;;
3549;SDS011;45572;48.804;8.330;2023-04-21T07:19:24;5.40;;;3.60;;
3549;SDS011;45572;48.804;8.330;2023-04-21T07:21:52;5.13;;;3.90;;
3549;SDS011;45572;48.804;8.330;2023-04-21T07:24:21;7.10;;;3.43;;
3549;SDS011;45572;48.804;8.330;2023-04-21T07:26:49;5.47;;;3.87;;
3549;SDS011;45572;48.804;8.330;2023-04-21T07:29:18;5.63;;;3.50;;
3549;SDS011;45572;48.804;8.330;2023-04-21T07:31:46;8.23;;;5.47;;
3549;SDS011;45572;48.804;8.330;2023-04-21T07:34:15;7.40;;;6.00;;
3549;SDS011;45572;48.804;8.330;2023-04-21T07:36:44;8.17;;;6.63;;
3549;SDS011;45572;48.804;8.330;2023-04-21T07:39:13;9.80;;;7.37;;
3549;SDS011;45572;48.804;8.330;2023-04-21T07:41:48;9.47;;;7.53;;
3549;SDS011;45572;48.804;8.330;2023-04-21T07:44:16;11.67;;;7.80;;
3549;SDS011;45572;48.804;8.330;2023-04-21T07:46:44;11.27;;;8.90;;
3549;SDS011;45572;48.804;8.330;2023-04-21T07:49:11;8.07;;;6.83;;
3549;SDS011;45572;48.804;8.330;2023-04-21T07:51:39;8.70;;;7.43;;
3549;SDS011;45572;48.804;8.330;2023-04-21T07:54:09;10.43;;;7.37;;
3549;SDS011;45572;48.804;8.330;2023-04-21T07:56:39;9.40;;;8.13;;
3549;SDS011;45572;48.804;8.330;2023-04-21T07:59:07;11.50;;;8.13;;
3549;SDS011;45572;48.804;8.330;2023-04-21T08:01:39;9.60;;;8.10;;
3549;SDS011;45572;48.804;8.330;2023-04-21T08:04:09;10.10;;;8.13;;
3549;SDS011;45572;48.804;8.330;2023-04-21T08:06:39;13.30;;;7.97;;
3549;SDS011;45572;48.804;8.330;2023-04-21T08:09:09;11.23;;;8.17;;
3549;SDS011;45572;48.804;8.330;2023-04-21T08:11:42;8.90;;;7.73;;
3549;SDS011;45572;48.804;8.330;2023-04-21T08:14:10;9.10;;;7.50;;
3549;SDS011;45572;48.804;8.330;2023-04-21T08:16:40;7.77;;;6.97;;
3549;SDS011;45572;48.804;8.330;2023-04-21T08:19:08;8.00;;;6.17;;
3549;SDS011;45572;48.804;8.330;2023-04-21T08:21:37;7.33;;;5.90;;
3549;SDS011;45572;48.804;8.330;2023-04-21T08:24:05;10.30;;;6.73;;
3549;SDS011;45572;48.804;8.330;2023-04-21T08:26:35;10.03;;;7.00;;
3549;SDS011;45572;48.804;8.330;2023-04-21T08:29:02;8.47;;;6.40;;
3549;SDS011;45572;48.804;8.330;2023-04-21T08:31:32;8.00;;;5.73;;
3549;SDS011;45572;48.804;8.330;2023-04-21T08:34:00;8.27;;;6.70;;
3549;SDS011;45572;48.804;8.330;2023-04-21T08:36:28;6.60;;;5.77;;
3549;SDS011;45572;48.804;8.330;2023-04-21T08:38:57;7.20;;;5.70;;
3549;SDS011;45572;48.804;8.330;2023-04-21T08:41:25;7.00;;;6.20;;
3549;SDS011;45572;48.804;8.330;2023-04-21T08:43:55;7.50;;;5.70;;
3549;SDS011;45572;48.804;8.330;2023-04-21T08:46:23;5.23;;;4.70;;
3549;SDS011;45572;48.804;8.330;2023-04-21T08:48:50;5.87;;;4.77;;
3549;SDS011;45572;48.804;8.330;2023-04-21T08:51:21;6.73;;;5.40;;
3549;SDS011;45572;48.804;8.330;2023-04-21T08:53:50;6.60;;;5.63;;
3549;SDS011;45572;48.804;8.330;2023-04-21T08:56:22;6.83;;;4.70;;
3549;SDS011;45572;48.804;8.330;2023-04-21T08:58:52;6.60;;;4.70;;
3549;SDS011;45572;48.804;8.330;2023-04-21T09:01:24;5.10;;;4.60;;
3549;SDS011;45572;48.804;8.330;2023-04-21T09:03:52;4.23;;;3.83;;
3549;SDS011;45572;48.804;8.330;2023-04-21T09:06:21;5.07;;;3.53;;
3549;SDS011;45572;48.804;8.330;2023-04-21T09:08:53;4.17;;;3.20;;
3549;SDS011;45572;48.804;8.330;2023-04-21T09:11:21;3.43;;;3.00;;
3549;SDS011;45572;48.804;8.330;2023-04-21T09:13:55;3.83;;;2.70;;
3549;SDS011;45572;48.804;8.330;2023-04-21T09:16:23;3.00;;;2.53;;
3549;SDS011;45572;48.804;8.330;2023-04-21T09:18:55;3.93;;;2.10;;
3549;SDS011;45572;48.804;8.330;2023-04-21T09:21:26;2.03;;;1.50;;
3549;SDS011;45572;48.804;8.330;2023-04-21T09:23:59;3.67;;;1.27;;
3549;SDS011;45572;48.804;8.330;2023-04-21T09:26:35;2.23;;;1.33;;
3549;SDS011;45572;48.804;8.330;2023-04-21T09:29:06;2.30;;;1.57;;
3549;SDS011;45572;48.804;8.330;2023-04-21T09:31:36;1.80;;;1.17;;
3549;SDS011;45572;48.804;8.330;2023-04-21T09:34:15;2.40;;;1.37;;
3549;SDS011;45572;48.804;8.330;2023-04-21T09:36:46;1.57;;;1.20;;
3549;SDS011;45572;48.804;8.330;2023-04-21T09:39:15;1.73;;;1.33;;
3549;SDS011;45572;48.804;8.330;2023-04-21T09:41:46;2.20;;;1.23;;
3549;SDS011;45572;48.804;8.330;2023-04-21T09:44:16;2.10;;;1.33;;
3549;SDS011;45572;48.804;8.330;2023-04-21T09:46:47;1.73;;;0.80;;
3549;SDS011;45572;48.804;8.330;2023-04-21T09:49:16;3.23;;;0.80;;
3549;SDS011;45572;48.804;8.330;2023-04-21T09:51:47;1.60;;;0.83;;
3549;SDS011;45572;48.804;8.330;2023-04-21T09:54:35;1.97;;;1.00;;
3549;SDS011;45572;48.804;8.330;2023-04-21T09:57:12;1.30;;;0.60;;
3549;SDS011;45572;48.804;8.330;2023-04-21T09:59:58;1.23;;;0.80;;
3549;SDS011;45572;48.804;8.330;2023-04-21T10:02:34;2.50;;;1.97;;
3549;SDS011;45572;48.804;8.330;2023-04-21T10:05:03;1.50;;;1.03;;
3549;SDS011;45572;48.804;8.330;2023-04-21T10:07:34;1.60;;;0.97;;
3549;SDS011;45572;48.804;8.330;2023-04-21T10:10:02;1.43;;;0.97;;
3549;SDS011;45572;48.804;8.330;2023-04-21T10:12:34;1.50;;;0.90;;
3549;SDS011;45572;48.804;8.330;2023-04-21T10:15:03;2.20;;;1.03;;
3549;SDS011;45572;48.804;8.330;2023-04-21T10:17:34;1.80;;;0.97;;
3549;SDS011;45572;48.804;8.330;2023-04-21T10:20:07;1.57;;;0.80;;
3549;SDS011;45572;48.804;8.330;2023-04-21T10:22:36;1.10;;;0.70;;
3549;SDS011;45572;48.804;8.330;2023-04-21T10:25:07;1.63;;;0.80;;
3549;SDS011;45572;48.804;8.330;2023-04-21T10:27:36;2.00;;;1.00;;
3549;SDS011;45572;48.804;8.330;2023-04-21T10:33:01;1.33;;;0.83;;
3549;SDS011;45572;48.804;8.330;2023-04-21T10:38:33;3.27;;;0.87;;
3549;SDS011;45572;48.804;8.330;2023-04-21T10:41:11;0.87;;;0.57;;
3549;SDS011;45572;48.804;8.330;2023-04-21T10:43:56;1.23;;;0.73;;
3549;SDS011;45572;48.804;8.330;2023-04-21T10:46:35;2.13;;;1.00;;
3549;SDS011;45572;48.804;8.330;2023-04-21T10:49:05;1.80;;;0.73;;
3549;SDS011;45572;48.804;8.330;2023-04-21T10:54:36;0.90;;;0.60;;
3549;SDS011;45572;48.804;8.330;2023-04-21T10:57:09;2.17;;;0.70;;
3549;SDS011;45572;48.804;8.330;2023-04-21T10:59:39;1.50;;;0.80;;
3549;SDS011;45572;48.804;8.330;2023-04-21T11:02:08;0.90;;;0.70;;
3549;SDS011;45572;48.804;8.330;2023-04-21T11:04:38;1.17;;;0.70;;
3549;SDS011;45572;48.804;8.330;2023-04-21T11:07:12;0.83;;;0.60;;
3549;SDS011;45572;48.804;8.330;2023-04-21T11:09:42;0.80;;;0.50;;
3549;SDS011;45572;48.804;8.330;2023-04-21T11:12:17;0.77;;;0.60;;
3549;SDS011;45572;48.804;8.330;2023-04-21T11:14:47;1.00;;;0.60;;
3549;SDS011;45572;48.804;8.330;2023-04-21T11:17:17;0.90;;;0.60;;
3549;SDS011;45572;48.804;8.330;2023-04-21T11:19:49;0.80;;;0.60;;
3549;SDS011;45572;48.804;8.330;2023-04-21T11:22:22;0.73;;;0.57;;
3549;SDS011;45572;48.804;8.330;2023-04-21T11:24:52;1.30;;;0.60;;
3549;SDS011;45572;48.804;8.330;2023-04-21T11:27:22;0.70;;;0.57;;
3549;SDS011;45572;48.804;8.330;2023-04-21T11:29:52;0.80;;;0.60;;
3549;SDS011;45572;48.804;8.330;2023-04-21T11:32:21;0.77;;;0.50;;
3549;SDS011;45572;48.804;8.330;2023-04-21T11:34:49;1.33;;;0.50;;
3549;SDS011;45572;48.804;8.330;2023-04-21T11:37:22;2.00;;;1.00;;
3549;SDS011;45572;48.804;8.330;2023-04-21T11:39:59;1.10;;;0.70;;
3549;SDS011;45572;48.804;8.330;2023-04-21T11:42:29;1.20;;;0.60;;
3549;SDS011;45572;48.804;8.330;2023-04-21T11:44:57;0.87;;;0.60;;
3549;SDS011;45572;48.804;8.330;2023-04-21T11:47:27;4.20;;;1.73;;
3549;SDS011;45572;48.804;8.330;2023-04-21T11:49:56;0.80;;;0.50;;
3549;SDS011;45572;48.804;8.330;2023-04-21T11:52:26;1.47;;;0.60;;
3549;SDS011;45572;48.804;8.330;2023-04-21T11:54:58;0.90;;;0.60;;
3549;SDS011;45572;48.804;8.330;2023-04-21T11:57:27;1.33;;;0.70;;
3549;SDS011;45572;48.804;8.330;2023-04-21T11:59:58;2.13;;;0.60;;
3549;SDS011;45572;48.804;8.330;2023-04-21T12:02:52;1.37;;;0.50;;
3549;SDS011;45572;48.804;8.330;2023-04-21T12:05:23;0.70;;;0.50;;
3549;SDS011;45572;48.804;8.330;2023-04-21T12:07:54;2.53;;;0.50;;
3549;SDS011;45572;48.804;8.330;2023-04-21T12:10:22;0.93;;;0.50;;
3549;SDS011;45572;48.804;8.330;2023-04-21T12:12:52;0.80;;;0.57;;
3549;SDS011;45572;48.804;8.330;2023-04-21T12:15:23;1.37;;;0.53;;
3549;SDS011;45572;48.804;8.330;2023-04-21T12:17:52;1.00;;;0.70;;
3549;SDS011;45572;48.804;8.330;2023-04-21T12:20:22;0.80;;;0.43;;
3549;SDS011;45572;48.804;8.330;2023-04-21T12:22:52;1.33;;;0.70;;
3549;SDS011;45572;48.804;8.330;2023-04-21T12:25:23;1.97;;;0.70;;
3549;SDS011;45572;48.804;8.330;2023-04-21T12:27:52;0.90;;;0.60;;
3549;SDS011;45572;48.804;8.330;2023-04-21T12:30:25;1.23;;;0.60;;
3549;SDS011;45572;48.804;8.330;2023-04-21T12:32:59;1.23;;;0.63;;
3549;SDS011;45572;48.804;8.330;2023-04-21T12:35:27;1.60;;;0.60;;
3549;SDS011;45572;48.804;8.330;2023-04-21T12:37:55;1.67;;;0.60;;
3549;SDS011;45572;48.804;8.330;2023-04-21T12:40:23;1.07;;;0.60;;
3549;SDS011;45572;48.804;8.330;2023-04-21T12:42:52;1.87;;;0.60;;
3549;SDS011;45572;48.804;8.330;2023-04-21T12:45:21;1.13;;;0.60;;
3549;SDS011;45572;48.804;8.330;2023-04-21T12:47:50;0.93;;;0.60;;
3549;SDS011;45572;48.804;8.330;2023-04-21T12:50:24;1.33;;;0.63;;
3549;SDS011;45572;48.804;8.330;2023-04-21T12:52:55;1.20;;;0.50;;
3549;SDS011;45572;48.804;8.330;2023-04-21T12:55:24;0.87;;;0.60;;
3549;SDS011;45572;48.804;8.330;2023-04-21T12:57:52;4.77;;;0.70;;
3549;SDS011;45572;48.804;8.330;2023-04-21T13:00:21;1.57;;;0.60;;
3549;SDS011;45572;48.804;8.330;2023-04-21T13:02:52;2.67;;;0.80;;
3549;SDS011;45572;48.804;8.330;2023-04-21T13:05:21;1.97;;;0.90;;
3549;SDS011;45572;48.804;8.330;2023-04-21T13:07:52;1.20;;;0.80;;
3549;SDS011;45572;48.804;8.330;2023-04-21T13:10:23;1.20;;;0.70;;
3549;SDS011;45572;48.804;8.330;2023-04-21T13:12:52;1.27;;;0.70;;
3549;SDS011;45572;48.804;8.330;2023-04-21T13:15:22;0.97;;;0.60;;
3549;SDS011;45572;48.804;8.330;2023-04-21T13:17:50;1.07;;;0.70;;
3549;SDS011;45572;48.804;8.330;2023-04-21T13:20:18;1.93;;;1.07;;
3549;SDS011;45572;48.804;8.330;2023-04-21T13:22:49;1.30;;;0.63;;
3549;SDS011;45572;48.804;8.330;2023-04-21T13:25:19;1.10;;;0.60;;
3549;SDS011;45572;48.804;8.330;2023-04-21T13:27:51;2.00;;;0.90;;
3549;SDS011;45572;48.804;8.330;2023-04-21T13:30:19;1.17;;;0.90;;
3549;SDS011;45572;48.804;8.330;2023-04-21T13:32:47;2.10;;;0.67;;
3549;SDS011;45572;48.804;8.330;2023-04-21T13:35:15;2.03;;;0.73;;
3549;SDS011;45572;48.804;8.330;2023-04-21T13:37:43;1.30;;;0.63;;
3549;SDS011;45572;48.804;8.330;2023-04-21T13:40:13;1.40;;;0.87;;
3549;SDS011;45572;48.804;8.330;2023-04-21T13:42:40;2.10;;;1.07;;
3549;SDS011;45572;48.804;8.330;2023-04-21T13:45:08;1.63;;;1.10;;
3549;SDS011;45572;48.804;8.330;2023-04-21T13:47:38;0.90;;;0.63;;
3549;SDS011;45572;48.804;8.330;2023-04-21T13:50:07;1.73;;;0.77;;
3549;SDS011;45572;48.804;8.330;2023-04-21T13:52:35;1.30;;;0.90;;
3549;SDS011;45572;48.804;8.330;2023-04-21T13:55:03;0.90;;;0.70;;
3549;SDS011;45572;48.804;8.330;2023-04-21T13:57:33;1.60;;;1.10;;
3549;SDS011;45572;48.804;8.330;2023-04-21T14:00:05;0.97;;;0.70;;
3549;SDS011;45572;48.804;8.330;2023-04-21T14:02:37;1.90;;;0.80;;
3549;SDS011;45572;48.804;8.330;2023-04-21T14:05:08;4.73;;;1.20;;
3549;SDS011;45572;48.804;8.330;2023-04-21T14:07:40;3.53;;;1.20;;
3549;SDS011;45572;48.804;8.330;2023-04-21T14:10:10;1.30;;;0.70;;
3549;SDS011;45572;48.804;8.330;2023-04-21T14:12:40;2.20;;;1.07;;
3549;SDS011;45572;48.804;8.330;2023-04-21T14:15:10;1.30;;;0.80;;
3549;SDS011;45572;48.804;8.330;2023-04-21T14:17:38;2.20;;;1.07;;
3549;SDS011;45572;48.804;8.330;2023-04-21T14:20:11;3.80;;;0.97;;
3549;SDS011;45572;48.804;8.330;2023-04-21T14:22:39;2.23;;;0.97;;
3549;SDS011;45572;48.804;8.330;2023-04-21T14:25:08;1.03;;;0.70;;
3549;SDS011;45572;48.804;8.330;2023-04-21T14:27:36;1.80;;;0.93;;
3549;SDS011;45572;48.804;8.330;2023-04-21T14:30:06;1.30;;;0.70;;
3549;SDS011;45572;48.804;8.330;2023-04-21T14:32:35;1.53;;;1.20;;
3549;SDS011;45572;48.804;8.330;2023-04-21T14:35:04;1.00;;;0.80;;
3549;SDS011;45572;48.804;8.330;2023-04-21T14:37:32;3.30;;;0.80;;
3549;SDS011;45572;48.804;8.330;2023-04-21T14:40:00;1.97;;;1.00;;
3549;SDS011;45572;48.804;8.330;2023-04-21T14:42:29;2.80;;;1.63;;
3549;SDS011;45572;48.804;8.330;2023-04-21T14:44:56;3.38;;;1.65;;
3549;SDS011;45572;48.804;8.330;2023-04-21T14:47:25;3.65;;;1.50;;
3549;SDS011;45572;48.804;8.330;2023-04-21T14:49:53;3.90;;;1.67;;
3549;SDS011;45572;48.804;8.330;2023-04-21T14:52:21;3.30;;;1.20;;
3549;SDS011;45572;48.804;8.330;2023-04-21T14:54:54;1.45;;;0.95;;
3549;SDS011;45572;48.804;8.330;2023-04-21T14:57:22;2.92;;;1.60;;
3549;SDS011;45572;48.804;8.330;2023-04-21T14:59:50;3.25;;;1.88;;
3549;SDS011;45572;48.804;8.330;2023-04-21T15:02:20;4.25;;;2.00;;
3549;SDS011;45572;48.804;8.330;2023-04-21T15:04:50;2.22;;;1.40;;
3549;SDS011;45572;48.804;8.330;2023-04-21T15:07:18;1.55;;;1.17;;
3549;SDS011;45572;48.804;8.330;2023-04-21T15:09:50;2.70;;;1.67;;
3549;SDS011;45572;48.804;8.330;2023-04-21T15:12:18;1.85;;;1.25;;
3549;SDS011;45572;48.804;8.330;2023-04-21T15:14:46;2.70;;;1.80;;
3549;SDS011;45572;48.804;8.330;2023-04-21T15:17:14;3.17;;;1.65;;
3549;SDS011;45572;48.804;8.330;2023-04-21T15:19:44;2.67;;;2.00;;
3549;SDS011;45572;48.804;8.330;2023-04-21T15:22:15;6.05;;;1.83;;